.
WxDataArchive / Data Records for 2008-06-27
2008-06-26 June 2008 2008-06-28

Data Records for Friday, 27 June 2008

Time	Temp	Chill	HIndex	Humid	Dewpt	 Wind 	HiWind	WindDir	Rain 	Barom 
-----	----	-----	------	-----	-----	------	------	-------	-----	----- 
00:00	67.6	67.6	67.6	91	64.9	0	0	---	0.00	29.787 
00:05	67.4	67.4	67.4	91	64.7	0	0	---	0.00	29.786 
00:10	67.3	67.3	67.3	91	64.6	0	0	---	0.00	29.786 
00:15	67.3	67.3	67.3	92	64.9	0	0	---	0.00	29.785 
00:20	67.1	67.1	67.1	92	64.7	0	0	---	0.00	29.784 
00:25	67.1	67.1	67.1	92	64.7	0	0	---	0.00	29.783 
00:30	66.9	66.9	66.9	92	64.5	0	0	---	0.00	29.781 
00:35	66.9	66.9	66.9	92	64.5	0	0	---	0.00	29.782 
00:40	66.8	66.8	66.8	93	64.7	0	0	---	0.00	29.783 
00:45	66.8	66.8	66.8	93	64.7	0	0	---	0.00	29.787 
00:50	66.6	66.6	66.6	93	64.5	0	0	---	0.00	29.787 
00:55	66.6	66.6	66.6	93	64.5	0	0	---	0.00	29.784 
01:00	66.6	66.6	66.6	93	64.5	0	0	---	0.00	29.785 
01:05	66.4	66.4	66.4	94	64.6	0	0	---	0.00	29.796 
01:10	66.4	66.4	66.4	94	64.6	0	0	---	0.00	29.797 
01:15	66.4	66.4	66.4	94	64.6	0	1	248	0.00	29.797 
01:20	66.4	66.4	66.4	94	64.6	0	0	---	0.00	29.797 
01:25	66.4	66.4	66.4	94	64.6	0	0	---	0.00	29.804 
01:30	66.4	66.4	66.4	94	64.6	0	0	---	0.00	29.806 
01:35	66.4	66.4	66.4	94	64.6	0	0	---	0.00	29.800 
01:40	66.3	66.3	66.3	95	64.8	0	0	---	0.00	29.802 
01:45	66.3	66.3	66.3	95	64.8	0	0	---	0.00	29.808 
01:50	66.1	66.1	66.1	95	64.6	0	0	---	0.00	29.809 
01:55	66.1	66.1	66.1	95	64.6	0	0	---	0.00	29.804 
02:00	66.1	66.1	66.1	95	64.6	0	0	---	0.00	29.803 
02:05	66.1	66.1	66.1	95	64.6	0	0	---	0.00	29.798 
02:10	66.0	66.0	66.0	95	64.5	0	0	---	0.00	29.799 
02:15	66.0	66.0	66.0	95	64.5	0	0	---	0.00	29.804 
02:20	66.0	66.0	66.0	95	64.5	0	0	---	0.00	29.804 
02:25	66.0	66.0	66.0	95	64.5	0	0	---	0.00	29.799 
02:30	66.0	66.0	66.0	95	64.5	0	0	---	0.00	29.801 
02:35	66.0	66.0	66.0	95	64.5	0	0	---	0.00	29.803 
02:40	66.0	66.0	66.0	95	64.5	0	0	---	0.00	29.803 
02:45	65.8	65.8	65.8	95	64.3	0	0	---	0.00	29.805 
02:50	65.6	65.6	65.6	95	64.1	0	0	---	0.00	29.801 
02:55	65.6	65.6	65.6	96	64.4	0	0	---	0.00	29.800 
03:00	65.6	65.6	65.6	96	64.4	0	0	---	0.00	29.795 
03:05	65.5	65.5	65.5	96	64.3	0	0	---	0.00	29.791 
03:10	65.5	65.5	65.5	96	64.3	0	0	---	0.00	29.790 
03:15	65.5	65.5	65.5	96	64.3	0	0	---	0.00	29.790 
03:20	65.3	65.3	65.3	96	64.1	0	0	---	0.00	29.787 
03:25	65.2	65.2	65.2	96	64.0	0	0	---	0.00	29.784 
03:30	65.2	65.2	65.2	96	64.0	0	0	---	0.00	29.789 
03:35	65.2	65.2	65.2	96	64.0	0	0	---	0.00	29.790 
03:40	65.0	65.0	65.0	96	63.8	0	0	---	0.00	29.787 
03:45	65.0	65.0	65.0	96	63.8	0	0	---	0.00	29.782 
03:50	64.8	64.8	64.8	96	63.6	0	0	---	0.00	29.784 
03:55	64.8	64.8	64.8	96	63.6	0	0	---	0.00	29.791 
04:00	64.8	64.8	64.8	96	63.6	0	0	---	0.00	29.792 
04:05	64.8	64.8	64.8	96	63.6	0	0	---	0.00	29.796 
04:10	64.8	64.8	64.8	96	63.6	0	0	---	0.00	29.797 
04:15	64.8	64.8	64.8	96	63.6	0	0	---	0.00	29.796 
04:20	64.8	64.8	64.8	96	63.6	0	0	---	0.00	29.796 
04:25	65.0	65.0	65.0	96	63.8	0	0	---	0.00	29.799 
04:30	65.0	65.0	65.0	96	63.8	0	0	---	0.00	29.800 
04:35	65.2	65.2	65.2	96	64.0	0	0	---	0.00	29.800 
04:40	65.3	65.3	65.3	96	64.1	0	0	---	0.00	29.799 
04:45	65.6	65.6	65.6	96	64.4	0	1	248	0.00	29.800 
04:50	65.8	65.8	65.8	96	64.6	0	1	248	0.00	29.800 
04:55	66.0	66.0	66.0	96	64.8	0	0	---	0.00	29.796 
05:00	66.1	66.1	66.1	96	64.9	0	0	---	0.00	29.794 
05:05	66.3	66.3	66.3	96	65.1	0	0	---	0.00	29.797 
05:10	66.3	66.3	66.3	96	65.1	0	0	---	0.00	29.796 
05:15	66.3	66.3	66.3	96	65.1	0	0	---	0.00	29.797 
05:20	66.1	66.1	66.1	96	64.9	0	0	---	0.00	29.797 
05:25	66.1	66.1	66.1	96	64.9	0	0	---	0.00	29.802 
05:30	66.1	66.1	66.1	96	64.9	0	0	---	0.00	29.800 
05:35	66.1	66.1	66.1	96	64.9	0	0	---	0.00	29.803 
05:40	66.1	66.1	66.1	96	64.9	0	0	---	0.00	29.809 
05:45	66.1	66.1	66.1	96	64.9	0	0	---	0.00	29.812 
05:50	66.1	66.1	66.1	96	64.9	0	0	---	0.00	29.813 
05:55	66.1	66.1	66.1	96	64.9	0	0	---	0.00	29.813 
06:00	66.3	66.3	66.3	96	65.1	0	1	248	0.00	29.812 
06:05	66.4	66.4	66.4	96	65.2	0	1	248	0.00	29.812 
06:10	66.6	66.6	66.6	97	65.7	0	1	248	0.00	29.813 
06:15	66.8	66.8	66.8	97	65.9	0	1	248	0.00	29.816 
06:20	67.1	67.1	67.1	97	66.2	0	0	---	0.00	29.816 
06:25	67.3	67.3	67.3	97	66.4	0	1	248	0.00	29.818 
06:30	67.4	67.4	67.4	97	66.5	0	1	248	0.00	29.822 
06:35	67.8	67.8	67.8	97	66.9	0	1	248	0.00	29.821 
06:40	68.1	68.1	68.1	97	67.2	0	0	---	0.00	29.818 
06:45	68.4	68.4	68.4	96	67.2	0	1	248	0.00	29.813 
06:50	68.8	68.8	68.8	96	67.6	0	1	248	0.00	29.814 
06:55	68.9	68.9	68.9	96	67.7	0	1	248	0.00	29.815 
07:00	69.3	69.3	69.3	96	68.1	0	0	---	0.00	29.814 
07:05	69.8	69.8	69.8	96	68.6	0	1	248	0.00	29.813 
07:10	70.3	70.3	70.3	96	69.1	0	1	248	0.00	29.810 
07:15	70.6	70.6	70.6	94	68.8	0	2	248	0.00	29.806 
07:20	70.9	70.9	70.9	92	68.5	0	1	248	0.00	29.801 
07:25	71.6	71.6	71.6	91	68.8	0	0	---	0.00	29.799 
07:30	72.3	72.3	72.3	89	68.9	0	0	---	0.00	29.800 
07:35	72.7	72.7	72.7	88	68.9	0	1	248	0.00	29.801 
07:40	73.2	73.2	73.2	85	68.4	0	2	248	0.00	29.802 
07:45	73.9	73.9	73.9	83	68.4	0	1	248	0.00	29.802 
07:50	74.4	74.4	74.4	82	68.5	1	2	248	0.00	29.799 
07:55	74.9	74.9	74.9	82	69.0	0	2	180	0.00	29.799 
08:00	75.3	75.3	75.8	82	69.4	0	1	180	0.00	29.800 
08:05	75.6	75.6	76.3	81	69.3	0	2	180	0.00	29.801 
08:10	75.8	75.8	76.7	80	69.2	1	2	180	0.00	29.799 
08:15	76.0	76.0	77.0	80	69.4	1	2	180	0.00	29.800 
08:20	76.3	76.3	77.5	79	69.3	0	1	180	0.00	29.804 
08:25	76.7	76.7	78.2	78	69.3	0	2	180	0.00	29.810 
08:30	76.7	76.7	78.2	78	69.3	0	1	180	0.00	29.811 
08:35	76.8	76.8	78.4	77	69.0	0	2	180	0.00	29.813 
08:40	77.2	77.2	79.0	77	69.4	0	2	180	0.00	29.809 
08:45	77.6	77.6	79.6	77	69.8	0	1	180	0.00	29.807 
08:50	77.7	77.7	79.7	76	69.5	1	3	180	0.00	29.806 
08:55	77.6	77.6	79.6	78	70.2	0	3	135	0.00	29.807 
09:00	77.6	77.6	79.6	76	69.4	0	2	135	0.00	29.811 
09:05	77.9	77.9	80.1	77	70.1	1	3	135	0.00	29.817 
09:10	77.9	77.9	80.0	76	69.7	1	2	158	0.00	29.813 
09:15	78.3	78.3	80.7	77	70.5	0	2	158	0.00	29.813 
09:20	78.6	78.6	81.2	76	70.4	1	3	158	0.00	29.811 
09:25	78.8	78.8	81.5	76	70.6	0	2	112	0.00	29.809 
09:30	78.8	78.8	81.5	75	70.2	1	3	112	0.00	29.806 
09:35	78.8	78.8	81.5	76	70.6	0	2	112	0.00	29.806 
09:40	79.0	79.0	81.8	75	70.4	0	1	112	0.00	29.807 
09:45	79.0	79.0	81.6	73	69.6	1	3	112	0.00	29.807 
09:50	79.0	79.0	81.8	75	70.4	1	3	112	0.00	29.807 
09:55	79.4	79.4	82.3	73	70.0	1	3	112	0.00	29.806 
10:00	79.8	79.8	82.6	70	69.1	1	2	248	0.00	29.804 
10:05	80.3	80.3	83.4	70	69.6	1	3	112	0.00	29.803 
10:10	80.1	80.1	83.2	71	69.8	1	3	292	0.00	29.804 
10:15	80.3	80.3	83.4	70	69.6	1	6	112	0.00	29.806 
10:20	80.7	80.7	84.3	71	70.4	1	3	112	0.00	29.803 
10:25	81.1	81.1	84.8	70	70.4	1	3	45	0.00	29.801 
10:30	81.2	81.2	84.6	68	69.6	1	3	248	0.00	29.803 
10:35	81.2	81.2	84.5	67	69.2	1	3	248	0.00	29.805 
10:40	81.4	81.4	85.0	68	69.8	1	4	248	0.00	29.807 
10:45	80.9	80.9	84.0	67	68.9	2	3	248	0.00	29.806 
10:50	80.9	80.9	83.7	65	68.0	2	4	270	0.00	29.806 
10:55	81.1	81.1	84.0	65	68.2	1	3	270	0.00	29.804 
11:00	81.2	81.2	84.0	64	67.8	2	5	270	0.00	29.804 
11:05	81.2	81.2	84.1	65	68.3	2	5	270	0.00	29.810 
11:10	81.6	81.6	84.9	66	69.1	1	3	270	0.00	29.808 
11:15	82.0	82.0	84.8	62	67.7	1	3	270	0.00	29.810 
11:20	82.4	82.4	85.4	62	68.0	1	3	270	0.00	29.808 
11:25	82.8	82.8	86.1	62	68.4	1	3	270	0.00	29.809 
11:30	83.0	83.0	86.4	62	68.6	1	3	248	0.00	29.805 
11:35	82.6	82.6	85.5	61	67.8	1	5	248	0.00	29.807 
11:40	82.2	82.2	85.1	62	67.9	2	3	248	0.00	29.806 
11:45	82.6	82.6	85.9	63	68.7	1	3	248	0.00	29.804 
11:50	82.8	82.8	86.3	63	68.9	2	3	248	0.00	29.803 
11:55	82.8	82.8	85.8	61	67.9	1	3	248	0.00	29.802 
12:00	83.2	83.2	86.9	63	69.3	1	3	270	0.00	29.802 
12:05	83.6	83.6	87.1	61	68.7	1	5	90	0.00	29.802 
12:10	83.8	83.8	86.9	59	67.9	1	3	225	0.00	29.801 
12:15	83.6	83.6	86.9	60	68.2	1	5	248	0.00	29.796 
12:20	83.6	83.6	86.6	59	67.7	1	4	270	0.00	29.800 
12:25	83.4	83.4	86.5	60	68.0	1	4	270	0.00	29.798 
12:30	83.2	83.2	86.0	59	67.4	0	2	270	0.00	29.793 
12:35	83.2	83.2	86.0	59	67.4	1	3	270	0.00	29.792 
12:40	83.0	83.0	86.1	61	68.1	1	3	270	0.00	29.789 
12:45	82.8	82.8	85.4	59	67.0	0	2	292	0.00	29.786 
12:50	82.8	82.8	85.6	60	67.5	1	4	270	0.00	29.787 
12:55	83.2	83.2	86.5	61	68.3	1	3	248	0.00	29.784 
13:00	83.8	83.8	86.7	58	67.4	1	2	270	0.00	29.781 
13:05	84.5	84.5	89.0	62	70.0	1	4	315	0.00	29.780 
13:10	84.1	84.1	87.2	58	67.7	1	3	292	0.00	29.781 
13:15	83.6	83.6	86.4	58	67.2	1	3	270	0.00	29.778 
13:20	82.8	82.8	85.2	58	66.5	1	4	248	0.00	29.779 
13:25	82.2	82.2	84.9	61	67.4	1	5	248	0.00	29.778 
13:30	81.8	81.8	84.3	61	67.0	1	3	270	0.00	29.776 
13:35	81.8	81.8	84.5	62	67.5	1	2	270	0.00	29.776 
13:40	81.8	81.8	84.7	63	67.9	1	4	315	0.00	29.774 
13:45	82.6	82.6	85.5	61	67.8	1	4	225	0.00	29.773 
13:50	83.2	83.2	86.0	59	67.4	1	2	248	0.00	29.771 
13:55	83.0	83.0	85.9	60	67.7	0	3	248	0.00	29.769 
14:00	82.6	82.6	85.5	61	67.8	1	2	248	0.00	29.774 
14:05	82.4	82.4	85.4	62	68.0	0	2	248	0.00	29.775 
14:10	82.0	82.0	84.6	61	67.2	1	4	248	0.00	29.783 
14:15	81.6	81.6	84.2	62	67.3	2	4	270	0.00	29.789 
14:20	78.8	78.8	80.5	61	64.2	6	20	270	0.00	29.814 
14:25	72.3	72.3	72.3	73	63.1	6	12	270	0.05	29.804 
14:30	69.4	69.4	69.4	82	63.7	3	12	270	0.04	29.795 
14:35	68.6	68.6	68.6	87	64.6	1	3	270	0.05	29.788 
14:40	68.4	68.4	68.4	89	65.0	0	2	270	0.01	29.787 
14:45	68.3	68.3	68.3	91	65.6	0	1	270	0.00	29.787 
14:50	68.3	68.3	68.3	92	65.9	0	1	270	0.01	29.785 
14:55	68.3	68.3	68.3	92	65.9	0	0	---	0.01	29.784 
15:00	68.4	68.4	68.4	92	66.0	0	0	---	0.02	29.780 
15:05	68.8	68.8	68.8	93	66.7	0	1	270	0.00	29.773 
15:10	68.9	68.9	68.9	93	66.8	0	1	270	0.01	29.768 
15:15	69.3	69.3	69.3	93	67.2	0	1	270	0.00	29.761 
15:20	69.9	69.9	69.9	93	67.8	0	2	270	0.00	29.758 
15:25	70.4	70.4	70.4	94	68.6	0	2	270	0.00	29.757 
15:30	70.8	70.8	70.8	93	68.7	1	2	270	0.00	29.750 
15:35	71.3	71.3	71.3	93	69.2	0	1	270	0.00	29.750 
15:40	71.6	71.6	71.6	92	69.1	0	2	270	0.00	29.751 
15:45	71.8	71.8	71.8	92	69.3	0	2	270	0.00	29.752 
15:50	72.0	72.0	72.0	92	69.5	0	1	270	0.00	29.752 
15:55	72.3	72.3	72.3	92	69.8	0	1	270	0.00	29.751 
16:00	72.5	72.5	72.5	91	69.7	0	1	270	0.00	29.751 
16:05	72.8	72.8	72.8	91	70.0	0	2	270	0.00	29.753 
16:10	73.3	73.3	73.3	92	70.8	0	1	270	0.00	29.752 
16:15	74.0	74.0	74.0	91	71.2	0	2	270	0.00	29.750 
16:20	74.6	74.6	74.6	90	71.5	1	2	270	0.00	29.749 
16:25	74.9	74.9	74.9	87	70.8	1	3	270	0.00	29.747 
16:30	75.3	75.3	75.2	86	70.8	1	3	270	0.00	29.746 
16:35	75.8	75.8	76.1	86	71.3	1	2	270	0.00	29.744 
16:40	76.1	76.1	76.6	86	71.6	1	4	270	0.00	29.744 
16:45	76.5	76.5	77.5	84	71.3	0	2	270	0.00	29.739 
16:50	76.7	76.7	77.9	84	71.5	0	2	270	0.00	29.732 
16:55	77.2	77.2	78.9	82	71.3	1	3	292	0.00	29.731 
17:00	77.6	77.6	79.6	80	70.9	1	3	270	0.00	29.729 
17:05	77.7	77.7	79.8	80	71.0	1	4	270	0.00	29.729 
17:10	77.7	77.7	79.8	80	71.0	1	3	270	0.00	29.729 
17:15	77.6	77.6	79.6	80	70.9	1	4	248	0.00	29.728 
17:20	77.6	77.6	79.6	81	71.3	0	1	248	0.00	29.727 
17:25	77.6	77.6	79.6	80	70.9	0	2	202	0.00	29.725 
17:30	77.4	77.4	79.2	80	70.7	0	2	202	0.00	29.723 
17:35	77.4	77.4	79.2	80	70.7	0	1	202	0.00	29.719 
17:40	77.6	77.6	79.6	81	71.3	0	2	202	0.00	29.715 
17:45	77.4	77.4	79.2	80	70.7	1	3	180	0.00	29.708 
17:50	77.4	77.4	79.2	80	70.7	1	3	180	0.00	29.705 
17:55	77.4	77.4	79.2	80	70.7	0	1	90	0.00	29.702 
18:00	77.6	77.6	79.6	80	70.9	1	3	90	0.00	29.702 
18:05	77.4	77.4	79.2	80	70.7	0	3	90	0.00	29.698 
18:10	77.4	77.4	79.2	81	71.1	0	1	90	0.00	29.699 
18:15	77.4	77.4	79.2	81	71.1	0	1	90	0.00	29.699 
18:20	77.4	77.4	79.2	81	71.1	0	2	90	0.00	29.697 
18:25	77.4	77.4	79.2	81	71.1	0	1	90	0.00	29.698 
18:30	77.4	77.4	79.2	81	71.1	0	1	90	0.00	29.697 
18:35	77.4	77.4	79.2	81	71.1	0	2	90	0.00	29.698 
18:40	77.6	77.6	79.6	82	71.7	0	0	---	0.00	29.707 
18:45	77.4	77.4	79.2	82	71.5	0	1	90	0.00	29.707 
18:50	77.4	77.4	79.2	82	71.5	0	0	---	0.00	29.707 
18:55	77.6	77.6	79.6	83	72.0	0	0	---	0.00	29.708 
19:00	77.4	77.4	79.2	83	71.8	0	1	90	0.00	29.709 
19:05	77.4	77.4	79.2	83	71.8	0	0	---	0.00	29.707 
19:10	77.4	77.4	79.2	84	72.2	0	0	---	0.00	29.706 
19:15	77.4	77.4	79.2	84	72.2	0	1	90	0.00	29.708 
19:20	77.2	77.2	78.8	84	72.0	0	0	---	0.00	29.707 
19:25	77.2	77.2	78.8	84	72.0	0	0	---	0.00	29.707 
19:30	77.2	77.2	78.8	84	72.0	0	1	90	0.00	29.710 
19:35	77.2	77.2	78.8	84	72.0	0	1	90	0.00	29.707 
19:40	77.0	77.0	78.4	84	71.8	0	0	---	0.00	29.706 
19:45	76.8	76.8	78.1	84	71.6	0	0	---	0.00	29.705 
19:50	76.8	76.8	78.1	83	71.2	0	1	90	0.00	29.704 
19:55	76.8	76.8	78.1	83	71.2	0	0	---	0.00	29.702 
20:00	76.7	76.7	78.0	82	70.8	0	0	---	0.00	29.703 
20:05	76.7	76.7	78.0	82	70.8	0	0	---	0.00	29.702 
20:10	76.5	76.5	77.7	82	70.6	0	0	---	0.00	29.703 
20:15	76.5	76.5	77.7	81	70.2	0	0	---	0.00	29.703 
20:20	76.5	76.5	77.7	81	70.2	0	0	---	0.00	29.701 
20:25	76.5	76.5	77.8	80	69.9	0	0	---	0.00	29.700 
20:30	76.5	76.5	77.8	79	69.5	0	1	90	0.00	29.697 
20:35	76.5	76.5	77.8	80	69.9	0	0	---	0.00	29.693 
20:40	76.5	76.5	77.8	79	69.5	0	0	---	0.00	29.691 
20:45	76.5	76.5	77.8	80	69.9	0	1	90	0.00	29.689 
20:50	76.5	76.5	77.8	80	69.9	0	0	---	0.00	29.689 
20:55	76.5	76.5	77.8	80	69.9	0	1	90	0.00	29.687 
21:00	76.5	76.5	77.8	80	69.9	0	1	90	0.00	29.684 
21:05	76.5	76.5	77.8	79	69.5	0	1	90	0.00	29.682 
21:10	76.5	76.5	77.8	79	69.5	0	1	90	0.00	29.681 
21:15	76.5	76.5	77.8	79	69.5	0	1	90	0.00	29.680 
21:20	76.5	76.5	77.8	79	69.5	0	2	90	0.00	29.678 
21:25	76.5	76.5	77.8	79	69.5	0	2	90	0.00	29.679 
21:30	76.5	76.5	77.8	79	69.5	0	1	90	0.00	29.683 
21:35	76.3	76.3	77.5	80	69.7	0	2	90	0.00	29.683 
21:40	76.3	76.3	77.4	81	70.0	0	1	90	0.00	29.684 
21:45	76.1	76.1	77.1	81	69.8	0	1	90	0.00	29.687 
21:50	76.1	76.1	77.1	81	69.8	0	2	90	0.00	29.687 
21:55	76.1	76.1	77.1	81	69.8	0	1	90	0.00	29.687 
22:00	76.1	76.1	77.1	81	69.8	0	3	90	0.00	29.687 
22:05	76.1	76.1	77.1	81	69.8	0	5	248	0.00	29.688 
22:10	76.0	76.0	76.9	81	69.7	0	3	248	0.00	29.689 
22:15	76.0	76.0	76.9	81	69.7	0	2	248	0.00	29.688 
22:20	76.0	76.0	77.0	80	69.4	1	6	292	0.00	29.688 
22:25	76.0	76.0	77.0	80	69.4	0	3	270	0.00	29.688 
22:30	75.8	75.8	76.6	81	69.5	1	3	270	0.00	29.692 
22:35	75.8	75.8	76.5	82	69.9	0	2	270	0.00	29.697 
22:40	75.4	75.4	75.9	82	69.5	0	2	270	0.00	29.694 
22:45	75.3	75.3	75.6	83	69.8	1	2	270	0.01	29.698 
22:50	75.1	75.1	75.2	84	69.9	1	3	270	0.00	29.700 
22:55	74.6	74.6	74.6	86	70.1	2	4	270	0.00	29.703 
23:00	73.9	73.9	73.9	87	69.8	2	4	270	0.00	29.705 
23:05	73.3	73.3	73.3	88	69.5	1	4	270	0.00	29.701 
23:10	72.7	72.7	72.7	89	69.3	1	3	225	0.00	29.702 
23:15	72.1	72.1	72.1	88	68.3	2	5	270	0.00	29.697 
23:20	71.8	71.8	71.8	88	68.0	1	3	270	0.00	29.695 
23:25	71.6	71.6	71.6	88	67.8	1	4	270	0.00	29.692 
23:30	71.5	71.5	71.5	88	67.7	1	3	248	0.00	29.699 
23:35	71.3	71.3	71.3	88	67.6	2	5	248	0.00	29.699 
23:40	71.1	71.1	71.1	88	67.4	2	6	248	0.00	29.701 
23:45	70.9	70.9	70.9	87	66.8	1	4	248	0.00	29.701 
23:50	70.8	70.8	70.8	87	66.7	1	4	248	0.00	29.698 
23:55	70.8	70.8	70.8	88	67.1	1	3	248	0.00	29.702 

CoCoRaHS
IN-AL-39
A2 Web Hosting
Creative Commons License
GoDaddy
Look for:

loaded 2017-12-12 01:27:44 • last modified 2010-11-18 10:43:29
Privacy PolicyDisclaimer
• wx.awcolley.com is powered by PmWiki v.2002016 •
• all content (unless otherwise noted) © 2017 A W Colley